createdAt,value
2018-12-03T00:00:05.100Z,-1.00
2018-12-03T00:02:35.458Z,-0.90
2018-12-03T00:05:06.603Z,-0.90
2018-12-03T00:07:37.052Z,-0.90
2018-12-03T00:10:09.290Z,-0.90
2018-12-03T00:12:39.626Z,-0.90
2018-12-03T00:15:09.970Z,-0.90
2018-12-03T00:17:40.329Z,-0.90
2018-12-03T00:20:11.504Z,-0.90
2018-12-03T00:22:41.864Z,-0.90
2018-12-03T00:25:12.182Z,-0.90
2018-12-03T00:27:51.642Z,-0.90
2018-12-03T00:30:22.376Z,-0.90
2018-12-03T00:32:52.742Z,-0.80
2018-12-03T00:35:23.075Z,-0.80
2018-12-03T00:37:53.428Z,-0.80
2018-12-03T00:40:23.854Z,-0.70
2018-12-03T00:42:54.215Z,-0.80
2018-12-03T00:45:24.530Z,-0.70
2018-12-03T00:47:54.783Z,-0.70
2018-12-03T00:50:25.139Z,-0.80
2018-12-03T00:52:55.420Z,-0.80
2018-12-03T00:55:25.772Z,-0.70
2018-12-03T00:57:56.146Z,-0.80
2018-12-03T01:00:26.422Z,-0.80
2018-12-03T01:02:56.739Z,-0.80
2018-12-03T01:05:27.076Z,-0.80
2018-12-03T01:07:57.458Z,-0.80
2018-12-03T01:10:27.823Z,-0.80
2018-12-03T01:12:58.142Z,-0.80
2018-12-03T01:15:28.537Z,-0.80
2018-12-03T01:17:58.788Z,-0.70
2018-12-03T01:20:29.199Z,-0.70
2018-12-03T01:22:59.554Z,-0.70
2018-12-03T01:25:30.578Z,-0.70
2018-12-03T01:28:00.883Z,-0.70
2018-12-03T01:30:31.344Z,-0.60
2018-12-03T01:33:01.853Z,-0.60
2018-12-03T01:35:32.462Z,-0.60
2018-12-03T01:38:02.947Z,-0.60
2018-12-03T01:40:33.290Z,-0.50
2018-12-03T01:43:03.652Z,-0.50
2018-12-03T01:45:34.082Z,-0.60
2018-12-03T01:48:04.406Z,-0.60
2018-12-03T01:50:34.790Z,-0.60
2018-12-03T01:53:05.397Z,-0.60
2018-12-03T01:55:35.728Z,-0.60
2018-12-03T01:58:06.144Z,-0.60
2018-12-03T02:01:13.522Z,-0.50
2018-12-03T02:03:42.552Z,-0.50
2018-12-03T02:06:11.614Z,-0.50
2018-12-03T02:08:40.679Z,-0.40
2018-12-03T02:11:09.730Z,-0.40
2018-12-03T02:13:38.801Z,-0.40
2018-12-03T02:16:07.821Z,-0.40
2018-12-03T02:18:36.842Z,-0.40
2018-12-03T02:21:05.919Z,-0.40
2018-12-03T02:23:34.981Z,-0.40
2018-12-03T02:26:04.084Z,-0.40
2018-12-03T02:28:33.126Z,-0.40
2018-12-03T02:31:02.196Z,-0.40
2018-12-03T02:33:31.225Z,-0.30
2018-12-03T02:36:00.291Z,-0.30
2018-12-03T02:38:29.307Z,-0.30
2018-12-03T02:40:58.368Z,-0.30
2018-12-03T02:43:27.432Z,-0.30
2018-12-03T02:45:56.495Z,-0.30
2018-12-03T02:48:25.528Z,-0.30
2018-12-03T02:50:54.591Z,-0.30
2018-12-03T02:53:23.612Z,-0.20
2018-12-03T02:55:52.681Z,-0.20
2018-12-03T02:58:21.704Z,-0.20
2018-12-03T03:00:50.770Z,-0.20
2018-12-03T03:03:19.790Z,-0.20
2018-12-03T03:05:48.855Z,-0.20
2018-12-03T03:08:17.923Z,-0.20
2018-12-03T03:10:46.986Z,-0.20
2018-12-03T03:13:16.003Z,-0.20
2018-12-03T03:15:45.077Z,-0.20
2018-12-03T03:18:14.094Z,-0.20
2018-12-03T03:20:43.164Z,-0.20
2018-12-03T03:23:12.227Z,-0.20
2018-12-03T03:25:41.254Z,-0.20
2018-12-03T03:28:10.308Z,-0.20
2018-12-03T03:30:39.341Z,-0.20
2018-12-03T03:33:08.391Z,-0.20
2018-12-03T03:35:37.409Z,-0.20
2018-12-03T03:38:06.566Z,-0.10
2018-12-03T03:40:35.573Z,-0.10
2018-12-03T03:43:04.897Z,0.00
2018-12-03T03:45:33.964Z,0.00
2018-12-03T03:48:03.023Z,0.00
2018-12-03T03:50:32.116Z,-0.10
2018-12-03T03:53:01.182Z,-0.10
2018-12-03T03:55:30.238Z,-0.10
2018-12-03T03:57:59.315Z,-0.10
2018-12-03T04:00:28.454Z,-0.10
2018-12-03T04:02:57.455Z,0.00
2018-12-03T04:05:26.517Z,0.00
2018-12-03T04:07:55.544Z,0.00
2018-12-03T04:10:24.588Z,0.00
2018-12-03T04:12:53.609Z,0.00
2018-12-03T04:15:22.671Z,0.00
2018-12-03T04:17:51.764Z,0.00
2018-12-03T04:20:20.894Z,0.00
2018-12-03T04:22:49.911Z,0.00
2018-12-03T04:25:18.967Z,0.00
2018-12-03T04:27:48.092Z,0.10
2018-12-03T04:30:17.175Z,0.10
2018-12-03T04:32:46.189Z,0.10
2018-12-03T04:35:15.290Z,0.10
2018-12-03T04:37:44.416Z,0.10
2018-12-03T04:40:13.550Z,0.10
2018-12-03T04:42:42.613Z,0.10
2018-12-03T04:45:11.667Z,0.10
2018-12-03T04:47:40.733Z,0.10
2018-12-03T04:50:09.830Z,0.10
2018-12-03T04:52:38.896Z,0.10
2018-12-03T04:55:08.066Z,0.10
2018-12-03T04:57:37.114Z,0.10
2018-12-03T05:00:06.817Z,0.10
2018-12-03T05:02:35.841Z,0.10
2018-12-03T05:05:06.053Z,0.10
2018-12-03T05:07:35.111Z,0.10
2018-12-03T05:10:05.650Z,0.10
2018-12-03T05:12:34.711Z,0.10
2018-12-03T05:15:04.371Z,0.10
2018-12-03T05:17:33.429Z,0.10
2018-12-03T05:20:02.557Z,0.10
2018-12-03T05:22:31.603Z,0.10
2018-12-03T05:25:00.612Z,0.10
2018-12-03T05:27:29.660Z,0.10
2018-12-03T05:29:58.686Z,0.10
2018-12-03T05:32:27.736Z,0.10
2018-12-03T05:34:56.752Z,0.10
2018-12-03T05:37:25.809Z,0.10
2018-12-03T05:39:54.842Z,0.10
2018-12-03T05:42:23.883Z,0.10
2018-12-03T05:44:52.900Z,0.10
2018-12-03T05:47:21.918Z,0.10
2018-12-03T05:49:50.977Z,0.10
2018-12-03T05:52:19.997Z,0.10
2018-12-03T05:54:49.132Z,0.20
2018-12-03T05:57:18.160Z,0.20
2018-12-03T05:59:47.229Z,0.20
2018-12-03T06:02:16.248Z,0.20
2018-12-03T06:04:45.290Z,0.20
2018-12-03T06:07:14.328Z,0.20
2018-12-03T06:09:43.369Z,0.30
2018-12-03T06:12:12.428Z,0.30
2018-12-03T06:14:41.442Z,0.30
2018-12-03T06:17:10.483Z,0.30
2018-12-03T06:19:39.533Z,0.30
2018-12-03T06:22:08.554Z,0.30
2018-12-03T06:24:37.682Z,0.30
2018-12-03T06:27:06.700Z,0.30
2018-12-03T06:29:35.776Z,0.30
2018-12-03T06:32:05.617Z,0.30
2018-12-03T06:34:34.828Z,0.30
2018-12-03T06:37:04.503Z,0.30
2018-12-03T06:39:33.540Z,0.30
2018-12-03T06:42:02.561Z,0.40
2018-12-03T06:44:32.013Z,0.30
2018-12-03T06:47:01.021Z,0.30
2018-12-03T06:49:30.062Z,0.40
2018-12-03T06:51:59.088Z,0.40
2018-12-03T06:54:28.124Z,0.40
2018-12-03T06:56:57.142Z,0.40
2018-12-03T06:59:26.188Z,0.40
2018-12-03T07:01:55.317Z,0.50
2018-12-03T07:04:24.363Z,0.50
2018-12-03T07:06:53.393Z,0.50
2018-12-03T07:09:22.435Z,0.50
2018-12-03T07:11:51.453Z,0.50
2018-12-03T07:14:20.487Z,0.50
2018-12-03T07:16:49.538Z,0.60
2018-12-03T07:19:18.680Z,0.60
2018-12-03T07:21:47.734Z,0.60
2018-12-03T07:24:16.800Z,0.60
2018-12-03T07:26:45.948Z,0.60
2018-12-03T07:29:14.958Z,0.60
2018-12-03T07:31:44.007Z,0.60
2018-12-03T07:34:13.032Z,0.60
2018-12-03T07:36:42.072Z,0.60
2018-12-03T07:39:11.120Z,0.60
2018-12-03T07:41:40.134Z,0.60
2018-12-03T07:44:09.179Z,0.60
2018-12-03T07:46:38.186Z,0.70
2018-12-03T07:49:07.307Z,0.70
2018-12-03T07:51:36.353Z,0.70
2018-12-03T07:54:05.461Z,0.70
2018-12-03T07:56:34.504Z,0.80
2018-12-03T07:59:03.583Z,0.70
2018-12-03T08:01:32.603Z,0.80
2018-12-03T08:04:01.657Z,0.80
2018-12-03T08:06:30.669Z,0.80
2018-12-03T08:08:59.727Z,0.80
2018-12-03T08:11:28.776Z,0.90
2018-12-03T08:13:57.785Z,0.90
2018-12-03T08:16:26.854Z,0.90
2018-12-03T08:18:55.908Z,1.00
2018-12-03T08:21:24.941Z,1.00
2018-12-03T08:23:53.958Z,1.00
2018-12-03T08:26:22.983Z,1.00
2018-12-03T08:28:52.053Z,1.00
2018-12-03T08:31:21.069Z,1.00
2018-12-03T08:33:50.133Z,1.00
2018-12-03T08:36:19.139Z,1.00
2018-12-03T08:38:48.151Z,1.10
2018-12-03T08:41:17.205Z,1.10
2018-12-03T08:43:46.291Z,1.10
2018-12-03T08:46:15.317Z,1.10
2018-12-03T08:48:44.322Z,1.20
2018-12-03T08:51:13.370Z,1.10
2018-12-03T08:53:44.179Z,1.20
2018-12-03T08:56:13.223Z,1.20
2018-12-03T08:58:42.243Z,1.20
2018-12-03T09:01:11.290Z,1.30
2018-12-03T09:03:40.327Z,1.30
2018-12-03T09:06:09.399Z,1.30
2018-12-03T09:08:38.520Z,1.40
2018-12-03T09:11:07.612Z,1.40
2018-12-03T09:13:36.671Z,1.40
2018-12-03T09:16:06.055Z,1.40
2018-12-03T09:18:35.174Z,1.50
2018-12-03T09:21:08.103Z,1.50
2018-12-03T09:23:37.237Z,1.50
2018-12-03T09:26:06.458Z,1.50
2018-12-03T09:28:35.477Z,1.50
2018-12-03T09:31:04.862Z,1.50
2018-12-03T09:33:33.998Z,1.50
2018-12-03T09:36:03.080Z,1.50
2018-12-03T09:38:34.141Z,1.60
2018-12-03T09:41:05.985Z,1.60
2018-12-03T09:43:34.463Z,1.60
2018-12-03T09:46:03.483Z,1.70
2018-12-03T09:48:32.528Z,1.70
2018-12-03T09:51:01.544Z,1.70
2018-12-03T09:53:30.598Z,1.70
2018-12-03T09:55:59.622Z,1.70
2018-12-03T09:58:29.250Z,1.70
2018-12-03T10:00:58.279Z,1.70
2018-12-03T10:03:27.295Z,1.80
2018-12-03T10:05:56.343Z,1.80
2018-12-03T10:08:27.305Z,1.80
2018-12-03T10:10:56.347Z,1.70
2018-12-03T10:13:25.357Z,1.70
2018-12-03T10:15:54.407Z,1.70
2018-12-03T10:18:23.426Z,1.80
2018-12-03T10:20:52.542Z,1.80
2018-12-03T10:23:21.588Z,1.80
2018-12-03T10:25:51.210Z,1.70
2018-12-03T10:28:20.235Z,1.70
2018-12-03T10:30:49.282Z,1.70
2018-12-03T10:33:18.386Z,1.70
2018-12-03T10:35:47.461Z,1.70
2018-12-03T10:38:16.537Z,1.70
2018-12-03T10:40:45.610Z,1.80
2018-12-03T10:43:14.662Z,1.80
2018-12-03T10:45:43.684Z,1.50
2018-12-03T10:48:12.715Z,1.90
2018-12-03T10:50:42.007Z,1.90
2018-12-03T10:53:11.021Z,1.90
2018-12-03T10:55:40.703Z,1.90
2018-12-03T10:58:09.784Z,1.90
2018-12-03T11:00:56.848Z,1.90
2018-12-03T11:03:27.734Z,1.90
2018-12-03T11:06:18.438Z,2.00
2018-12-03T11:08:47.635Z,2.00
2018-12-03T11:11:16.722Z,2.00
2018-12-03T11:13:45.914Z,1.90
2018-12-03T11:16:18.946Z,2.00
2018-12-03T11:18:48.264Z,2.00
2018-12-03T11:21:17.386Z,2.00
2018-12-03T11:23:46.432Z,2.00
2018-12-03T11:26:15.434Z,2.00
2018-12-03T11:28:44.552Z,2.00
2018-12-03T11:31:18.713Z,2.00
2018-12-03T11:33:47.762Z,2.00
2018-12-03T11:36:17.491Z,2.00
2018-12-03T11:38:52.180Z,2.00
2018-12-03T11:41:21.196Z,2.00
2018-12-03T11:43:50.224Z,2.00
2018-12-03T11:46:19.296Z,1.90
2018-12-03T11:48:48.311Z,1.90
2018-12-03T11:51:17.357Z,1.90
2018-12-03T11:53:46.374Z,1.90
2018-12-03T11:56:15.416Z,1.90
2018-12-03T11:58:44.460Z,1.90
2018-12-03T12:01:13.478Z,1.80
2018-12-03T12:03:42.899Z,1.80
2018-12-03T12:06:12.152Z,1.80
2018-12-03T12:08:41.194Z,1.80
2018-12-03T12:11:10.231Z,1.80
2018-12-03T12:13:39.282Z,1.80
2018-12-03T12:16:08.322Z,1.80
2018-12-03T12:18:37.350Z,1.80
2018-12-03T12:21:06.467Z,1.80
2018-12-03T12:23:35.595Z,1.80
2018-12-03T12:26:06.081Z,1.80
2018-12-03T12:28:38.197Z,1.80
2018-12-03T12:31:06.214Z,1.90
2018-12-03T12:33:35.367Z,1.90
2018-12-03T12:36:05.052Z,1.90
2018-12-03T12:38:34.121Z,1.90
2018-12-03T12:41:03.124Z,1.90
2018-12-03T12:43:32.186Z,1.90
2018-12-03T12:46:01.201Z,1.80
2018-12-03T12:48:30.246Z,1.80
2018-12-03T12:50:59.408Z,1.70
2018-12-03T12:53:28.493Z,1.70
2018-12-03T12:55:57.531Z,1.70
2018-12-03T12:58:26.553Z,1.70
2018-12-03T13:00:55.594Z,1.70
2018-12-03T13:03:24.618Z,1.70
2018-12-03T13:05:53.663Z,1.70
2018-12-03T13:08:22.718Z,1.70
2018-12-03T13:10:51.762Z,1.70
2018-12-03T13:13:20.821Z,1.70
2018-12-03T13:15:49.824Z,1.80
2018-12-03T13:18:18.884Z,1.80
2018-12-03T13:20:47.895Z,1.90
2018-12-03T13:23:17.013Z,1.90
2018-12-03T13:25:46.031Z,1.90
2018-12-03T13:28:15.051Z,1.90
2018-12-03T13:30:44.091Z,1.90
2018-12-03T13:33:13.111Z,1.90
2018-12-03T13:35:42.155Z,1.90
2018-12-03T13:38:11.216Z,1.80
2018-12-03T13:40:40.232Z,1.90
2018-12-03T13:43:09.360Z,1.80
2018-12-03T13:45:38.379Z,1.80
2018-12-03T13:48:07.685Z,1.80
2018-12-03T13:50:36.709Z,1.80
2018-12-03T13:53:05.899Z,1.80
2018-12-03T13:55:34.964Z,1.80
2018-12-03T13:58:04.086Z,1.80
2018-12-03T14:00:33.114Z,1.80
2018-12-03T14:03:02.223Z,1.70
2018-12-03T14:05:31.252Z,1.70
2018-12-03T14:08:00.303Z,1.70
2018-12-03T14:10:29.672Z,1.70
2018-12-03T14:12:58.802Z,1.70
2018-12-03T14:15:28.204Z,1.70
2018-12-03T14:17:57.314Z,1.70
2018-12-03T14:20:27.122Z,1.60
2018-12-03T14:22:56.529Z,1.60
2018-12-03T14:25:25.661Z,1.60
2018-12-03T14:27:54.682Z,1.60
2018-12-03T14:30:23.731Z,1.60
2018-12-03T14:32:52.851Z,1.60
2018-12-03T14:35:21.889Z,1.60
2018-12-03T14:37:50.906Z,1.60
2018-12-03T14:40:19.960Z,1.60
2018-12-03T14:42:49.088Z,1.60
2018-12-03T14:45:18.154Z,1.60
2018-12-03T14:47:47.237Z,1.60
2018-12-03T14:50:16.294Z,1.60
2018-12-03T14:52:45.337Z,1.60
2018-12-03T14:55:14.358Z,1.60
2018-12-03T14:57:43.408Z,1.60
2018-12-03T15:00:13.631Z,1.60
2018-12-03T15:02:43.546Z,1.60
2018-12-03T15:05:13.074Z,1.60
2018-12-03T15:07:42.101Z,1.60
2018-12-03T15:10:11.156Z,1.60
2018-12-03T15:12:40.200Z,1.60
2018-12-03T15:15:09.296Z,1.60
2018-12-03T15:17:38.341Z,1.60
2018-12-03T15:20:07.651Z,1.60
2018-12-03T15:22:36.710Z,1.60
2018-12-03T15:25:06.867Z,1.60
2018-12-03T15:27:35.918Z,1.60
2018-12-03T15:30:05.787Z,1.70
2018-12-03T15:32:36.593Z,1.60
2018-12-03T15:35:05.880Z,1.60
2018-12-03T15:37:34.907Z,1.60
2018-12-03T15:40:05.788Z,1.60
2018-12-03T15:42:34.891Z,1.60
2018-12-03T15:45:05.579Z,1.60
2018-12-03T15:47:34.591Z,1.60
2018-12-03T15:50:03.845Z,1.60
2018-12-03T15:52:32.956Z,1.60
2018-12-03T15:55:02.045Z,1.60
2018-12-03T15:57:31.100Z,1.60
2018-12-03T16:00:00.120Z,1.60
2018-12-03T16:02:29.166Z,1.60
2018-12-03T16:04:58.190Z,1.60
2018-12-03T16:07:27.206Z,1.50
2018-12-03T16:09:56.258Z,1.60
2018-12-03T16:12:25.353Z,1.60
2018-12-03T16:14:54.417Z,1.60
2018-12-03T16:17:23.432Z,1.60
2018-12-03T16:19:52.499Z,1.60
2018-12-03T16:22:21.634Z,1.60
2018-12-03T16:24:50.654Z,1.60
2018-12-03T16:27:19.683Z,1.60
2018-12-03T16:29:48.737Z,1.60
2018-12-03T16:32:17.787Z,1.60
2018-12-03T16:34:46.812Z,1.60
2018-12-03T16:37:15.876Z,1.50
2018-12-03T16:39:44.900Z,1.50
2018-12-03T16:42:13.924Z,1.50
2018-12-03T16:44:43.038Z,1.50
2018-12-03T16:47:12.066Z,1.50
2018-12-03T16:49:41.132Z,1.60
2018-12-03T16:52:10.157Z,1.70
2018-12-03T16:54:39.178Z,1.80
2018-12-03T16:57:08.234Z,1.80
2018-12-03T16:59:37.264Z,1.90
2018-12-03T17:02:06.315Z,1.90
2018-12-03T17:04:35.446Z,1.90
2018-12-03T17:07:04.654Z,1.90
2018-12-03T17:09:33.755Z,1.90
2018-12-03T17:12:02.823Z,1.90
2018-12-03T17:14:31.870Z,1.80
2018-12-03T17:17:00.892Z,1.80
2018-12-03T17:19:30.645Z,1.80
2018-12-03T17:22:00.895Z,1.80
2018-12-03T17:24:30.284Z,1.80
2018-12-03T17:26:59.309Z,1.80
2018-12-03T17:29:28.375Z,1.80
2018-12-03T17:31:57.386Z,1.80
2018-12-03T17:34:26.434Z,1.80
2018-12-03T17:36:55.481Z,1.70
2018-12-03T17:39:24.557Z,1.70
2018-12-03T17:41:53.707Z,1.70
2018-12-03T17:44:22.720Z,1.70
2018-12-03T17:46:51.781Z,1.70
2018-12-03T17:49:20.807Z,1.70
2018-12-03T17:51:49.820Z,1.70
2018-12-03T17:54:18.870Z,1.70
2018-12-03T17:56:47.892Z,1.70
2018-12-03T17:59:16.949Z,1.70
2018-12-03T18:01:45.962Z,1.70
2018-12-03T18:04:15.064Z,1.70
2018-12-03T18:06:44.054Z,1.70
2018-12-03T18:09:13.110Z,1.70
2018-12-03T18:11:42.222Z,1.70
2018-12-03T18:14:11.243Z,1.70
2018-12-03T18:16:42.126Z,1.70
2018-12-03T18:19:11.185Z,1.70
2018-12-03T18:21:40.236Z,1.70
2018-12-03T18:24:09.250Z,1.70
2018-12-03T18:26:38.302Z,1.70
2018-12-03T18:29:07.311Z,1.70
2018-12-03T18:31:36.361Z,1.70
2018-12-03T18:34:05.417Z,1.70
2018-12-03T18:36:34.526Z,1.70
2018-12-03T18:39:06.321Z,1.70
2018-12-03T18:41:35.403Z,1.70
2018-12-03T18:44:04.501Z,1.60
2018-12-03T18:46:33.932Z,1.60
2018-12-03T18:49:03.704Z,1.60
2018-12-03T18:51:32.728Z,1.70
2018-12-03T18:54:03.570Z,1.70
2018-12-03T18:56:32.602Z,1.60
2018-12-03T18:59:02.745Z,1.60
2018-12-03T19:01:31.834Z,1.70
2018-12-03T19:04:00.875Z,1.70
2018-12-03T19:06:30.103Z,1.70
2018-12-03T19:08:59.140Z,1.70
2018-12-03T19:11:28.252Z,1.70
2018-12-03T19:13:57.297Z,1.70
2018-12-03T19:16:26.374Z,1.70
2018-12-03T19:18:55.471Z,1.70
2018-12-03T19:21:24.551Z,1.70
2018-12-03T19:23:53.570Z,1.70
2018-12-03T19:26:22.588Z,1.60
2018-12-03T19:28:53.520Z,1.60
2018-12-03T19:31:22.616Z,1.60
2018-12-03T19:33:51.686Z,1.60
2018-12-03T19:36:20.727Z,1.60
2018-12-03T19:38:49.778Z,1.70
2018-12-03T19:41:18.821Z,1.70
2018-12-03T19:43:47.841Z,1.70
2018-12-03T19:46:19.293Z,1.70
2018-12-03T19:48:48.314Z,1.70
2018-12-03T19:51:17.374Z,1.70
2018-12-03T19:53:46.409Z,1.70
2018-12-03T19:56:15.474Z,1.70
2018-12-03T19:58:44.516Z,1.70
2018-12-03T20:01:13.568Z,1.70
2018-12-03T20:03:42.669Z,1.60
2018-12-03T20:06:11.730Z,1.70
2018-12-03T20:08:40.758Z,1.70
2018-12-03T20:11:09.908Z,1.70
2018-12-03T20:13:38.929Z,1.70
2018-12-03T20:16:07.963Z,1.70
2018-12-03T20:18:37.017Z,1.70
2018-12-03T20:21:06.073Z,1.70
2018-12-03T20:23:35.152Z,1.70
2018-12-03T20:26:04.974Z,1.80
2018-12-03T20:28:35.691Z,1.70
2018-12-03T20:31:06.982Z,1.70
2018-12-03T20:33:37.280Z,1.70
2018-12-03T20:36:07.520Z,1.70
2018-12-03T20:38:36.658Z,1.70
2018-12-03T20:41:05.758Z,1.70
2018-12-03T20:43:34.888Z,1.70
2018-12-03T20:46:05.695Z,1.70
2018-12-03T20:48:38.475Z,1.70
2018-12-03T20:51:08.836Z,1.80
2018-12-03T20:53:38.042Z,1.70
2018-12-03T20:56:07.095Z,1.70
2018-12-03T20:58:36.125Z,1.70
2018-12-03T21:01:05.346Z,1.70
2018-12-03T21:03:34.376Z,1.70
2018-12-03T21:06:03.436Z,1.70
2018-12-03T21:08:32.465Z,1.70
2018-12-03T21:11:02.814Z,1.70
2018-12-03T21:13:31.941Z,1.70
2018-12-03T21:16:00.999Z,1.70
2018-12-03T21:18:30.094Z,1.70
2018-12-03T21:20:59.374Z,1.80
2018-12-03T21:23:28.455Z,1.80
2018-12-03T21:25:57.485Z,1.80
2018-12-03T21:28:26.540Z,1.80
2018-12-03T21:30:56.543Z,1.80
2018-12-03T21:33:25.589Z,1.80
2018-12-03T21:35:54.609Z,1.80
2018-12-03T21:38:23.684Z,1.80
2018-12-03T21:40:52.797Z,1.80
2018-12-03T21:43:21.883Z,1.80
2018-12-03T21:45:50.936Z,1.80
2018-12-03T21:48:19.972Z,1.80
2018-12-03T21:50:49.019Z,1.70
2018-12-03T21:53:18.033Z,1.80
2018-12-03T21:55:47.093Z,1.80
2018-12-03T21:58:16.130Z,1.80
2018-12-03T22:00:45.285Z,1.80
2018-12-03T22:03:14.335Z,1.80
2018-12-03T22:05:43.388Z,1.80
2018-12-03T22:08:12.418Z,1.80
2018-12-03T22:10:41.499Z,1.90
2018-12-03T22:13:10.519Z,1.80
2018-12-03T22:15:39.535Z,1.80
2018-12-03T22:18:08.590Z,1.80
2018-12-03T22:20:37.648Z,1.80
2018-12-03T22:23:06.752Z,1.80
2018-12-03T22:25:36.090Z,1.90
2018-12-03T22:28:05.141Z,1.90
2018-12-03T22:30:34.173Z,1.80
2018-12-03T22:33:03.238Z,1.80
2018-12-03T22:35:32.307Z,1.80
2018-12-03T22:38:01.346Z,1.80
2018-12-03T22:40:30.389Z,1.80
2018-12-03T22:42:59.416Z,1.90
2018-12-03T22:45:28.482Z,1.80
2018-12-03T22:47:57.535Z,1.90
2018-12-03T22:50:26.612Z,1.90
2018-12-03T22:52:55.669Z,1.90
2018-12-03T22:55:24.734Z,1.90
2018-12-03T22:57:53.756Z,1.90
2018-12-03T23:00:36.820Z,1.90
2018-12-03T23:03:05.914Z,1.80
2018-12-03T23:05:34.945Z,1.70
2018-12-03T23:08:04.007Z,1.70
2018-12-03T23:10:33.028Z,1.70
2018-12-03T23:13:02.384Z,1.70
2018-12-03T23:15:31.429Z,1.70
2018-12-03T23:18:00.419Z,1.80
2018-12-03T23:20:29.486Z,1.80
2018-12-03T23:22:58.535Z,1.80
2018-12-03T23:25:27.549Z,1.80
2018-12-03T23:27:56.598Z,1.80
2018-12-03T23:30:25.610Z,1.90
2018-12-03T23:32:54.697Z,1.80
2018-12-03T23:35:23.715Z,1.80
2018-12-03T23:37:52.722Z,1.80
2018-12-03T23:40:21.773Z,1.90
2018-12-03T23:42:50.791Z,1.90
2018-12-03T23:45:19.808Z,1.90
2018-12-03T23:47:48.908Z,1.90
2018-12-03T23:50:17.922Z,1.90
2018-12-03T23:52:46.968Z,1.90
2018-12-03T23:55:15.989Z,1.90
2018-12-03T23:57:45.036Z,1.90
